sensor_id;sensor_type;location;lat;lon;timestamp;pressure;altitude;pressure_sealevel;temperature;humidity
9239;BME280;4654;43.242;27.976;2024-02-04T00:00:11;99028.47;;;5.85;83.70
9239;BME280;4654;43.242;27.976;2024-02-04T00:02:39;99022.81;;;5.93;83.13
9239;BME280;4654;43.242;27.976;2024-02-04T00:05:06;99024.88;;;5.91;82.60
9239;BME280;4654;43.242;27.976;2024-02-04T00:07:35;99028.78;;;5.94;82.84
9239;BME280;4654;43.242;27.976;2024-02-04T00:10:02;99037.97;;;5.96;82.36
9239;BME280;4654;43.242;27.976;2024-02-04T00:12:30;99036.19;;;6.02;82.29
9239;BME280;4654;43.242;27.976;2024-02-04T00:14:57;99036.44;;;6.00;81.75
9239;BME280;4654;43.242;27.976;2024-02-04T00:17:24;99033.34;;;6.03;81.81
9239;BME280;4654;43.242;27.976;2024-02-04T00:19:55;99028.91;;;6.04;81.51
9239;BME280;4654;43.242;27.976;2024-02-04T00:22:23;99026.81;;;6.01;81.70
9239;BME280;4654;43.242;27.976;2024-02-04T00:24:51;99029.94;;;6.03;81.28
9239;BME280;4654;43.242;27.976;2024-02-04T00:27:18;99028.63;;;6.00;81.40
9239;BME280;4654;43.242;27.976;2024-02-04T00:29:46;99035.66;;;6.00;81.54
9239;BME280;4654;43.242;27.976;2024-02-04T00:32:13;99038.50;;;5.98;81.15
9239;BME280;4654;43.242;27.976;2024-02-04T00:34:40;99034.28;;;5.92;81.63
9239;BME280;4654;43.242;27.976;2024-02-04T00:37:07;99042.81;;;5.88;81.77
9239;BME280;4654;43.242;27.976;2024-02-04T00:39:34;99036.56;;;5.89;81.71
9239;BME280;4654;43.242;27.976;2024-02-04T00:42:03;99042.78;;;5.83;82.20
9239;BME280;4654;43.242;27.976;2024-02-04T00:44:31;99045.88;;;5.80;82.44
9239;BME280;4654;43.242;27.976;2024-02-04T00:46:58;99048.88;;;5.72;82.69
9239;BME280;4654;43.242;27.976;2024-02-04T00:49:25;99038.19;;;5.73;83.06
9239;BME280;4654;43.242;27.976;2024-02-04T00:51:52;99045.72;;;5.70;83.41
9239;BME280;4654;43.242;27.976;2024-02-04T00:54:20;99032.84;;;5.80;83.58
9239;BME280;4654;43.242;27.976;2024-02-04T00:56:47;99025.31;;;5.83;83.44
9239;BME280;4654;43.242;27.976;2024-02-04T00:59:15;99019.56;;;5.82;83.72
9239;BME280;4654;43.242;27.976;2024-02-04T01:01:43;99022.09;;;5.77;83.90
9239;BME280;4654;43.242;27.976;2024-02-04T01:04:10;99018.78;;;5.81;84.13
9239;BME280;4654;43.242;27.976;2024-02-04T01:06:37;99017.00;;;5.86;84.21
9239;BME280;4654;43.242;27.976;2024-02-04T01:09:04;99015.72;;;5.89;84.10
9239;BME280;4654;43.242;27.976;2024-02-04T01:11:32;99021.19;;;5.87;84.01
9239;BME280;4654;43.242;27.976;2024-02-04T01:13:59;99029.25;;;5.86;84.27
9239;BME280;4654;43.242;27.976;2024-02-04T01:16:28;99026.69;;;5.91;84.02
9239;BME280;4654;43.242;27.976;2024-02-04T01:18:55;99030.38;;;5.95;84.05
9239;BME280;4654;43.242;27.976;2024-02-04T01:21:22;99030.13;;;5.96;83.86
9239;BME280;4654;43.242;27.976;2024-02-04T01:23:51;99026.44;;;5.92;83.66
9239;BME280;4654;43.242;27.976;2024-02-04T01:26:18;99031.41;;;5.94;83.69
9239;BME280;4654;43.242;27.976;2024-02-04T01:28:46;99020.25;;;5.98;83.60
9239;BME280;4654;43.242;27.976;2024-02-04T01:31:13;99020.78;;;6.00;83.01
9239;BME280;4654;43.242;27.976;2024-02-04T01:33:41;99018.13;;;5.95;83.01
9239;BME280;4654;43.242;27.976;2024-02-04T01:36:09;99021.59;;;6.01;82.98
9239;BME280;4654;43.242;27.976;2024-02-04T01:38:36;99017.47;;;6.05;82.57
9239;BME280;4654;43.242;27.976;2024-02-04T01:41:03;99020.59;;;6.07;82.55
9239;BME280;4654;43.242;27.976;2024-02-04T01:43:30;99000.56;;;6.12;82.03
9239;BME280;4654;43.242;27.976;2024-02-04T01:45:57;98998.72;;;6.08;81.88
9239;BME280;4654;43.242;27.976;2024-02-04T01:48:25;98988.00;;;6.09;81.99
9239;BME280;4654;43.242;27.976;2024-02-04T01:50:55;99002.84;;;6.04;82.20
9239;BME280;4654;43.242;27.976;2024-02-04T01:53:24;98983.25;;;6.01;82.40
9239;BME280;4654;43.242;27.976;2024-02-04T01:55:53;98992.66;;;6.02;82.12
9239;BME280;4654;43.242;27.976;2024-02-04T01:58:22;98986.41;;;6.03;82.21
9239;BME280;4654;43.242;27.976;2024-02-04T02:00:50;98983.25;;;6.01;82.36
9239;BME280;4654;43.242;27.976;2024-02-04T02:03:18;98980.94;;;6.05;82.05
9239;BME280;4654;43.242;27.976;2024-02-04T02:05:46;98972.88;;;6.06;81.96
9239;BME280;4654;43.242;27.976;2024-02-04T02:08:15;98976.00;;;6.08;82.07
9239;BME280;4654;43.242;27.976;2024-02-04T02:10:44;98969.03;;;6.14;81.90
9239;BME280;4654;43.242;27.976;2024-02-04T02:13:16;98966.47;;;6.19;81.54
9239;BME280;4654;43.242;27.976;2024-02-04T02:15:47;98976.69;;;6.25;81.24
9239;BME280;4654;43.242;27.976;2024-02-04T02:18:18;98961.28;;;6.24;81.08
9239;BME280;4654;43.242;27.976;2024-02-04T02:21:02;98970.97;;;6.28;80.63
9239;BME280;4654;43.242;27.976;2024-02-04T02:23:43;98969.97;;;6.34;80.27
9239;BME280;4654;43.242;27.976;2024-02-04T02:26:15;98965.81;;;6.38;80.18
9239;BME280;4654;43.242;27.976;2024-02-04T02:28:43;98971.88;;;6.44;79.63
9239;BME280;4654;43.242;27.976;2024-02-04T02:31:10;98971.13;;;6.53;78.91
9239;BME280;4654;43.242;27.976;2024-02-04T02:33:38;98969.06;;;6.55;78.61
9239;BME280;4654;43.242;27.976;2024-02-04T02:36:12;98974.34;;;6.60;78.19
9239;BME280;4654;43.242;27.976;2024-02-04T02:38:46;98978.00;;;6.59;78.07
9239;BME280;4654;43.242;27.976;2024-02-04T02:41:18;98983.22;;;6.59;78.04
9239;BME280;4654;43.242;27.976;2024-02-04T02:43:48;98972.78;;;6.59;78.26
9239;BME280;4654;43.242;27.976;2024-02-04T02:46:18;98974.56;;;6.59;78.29
9239;BME280;4654;43.242;27.976;2024-02-04T02:48:46;98973.50;;;6.55;78.38
9239;BME280;4654;43.242;27.976;2024-02-04T02:51:14;98972.47;;;6.56;78.68
9239;BME280;4654;43.242;27.976;2024-02-04T02:53:41;98967.00;;;6.57;78.69
9239;BME280;4654;43.242;27.976;2024-02-04T02:56:08;98964.38;;;6.57;78.93
9239;BME280;4654;43.242;27.976;2024-02-04T02:58:37;98961.03;;;6.62;79.16
9239;BME280;4654;43.242;27.976;2024-02-04T03:01:04;98966.25;;;6.62;79.04
9239;BME280;4654;43.242;27.976;2024-02-04T03:03:31;98976.72;;;6.67;79.27
9239;BME280;4654;43.242;27.976;2024-02-04T03:05:58;98973.63;;;6.75;78.97
9239;BME280;4654;43.242;27.976;2024-02-04T03:08:26;98980.19;;;6.77;78.73
9239;BME280;4654;43.242;27.976;2024-02-04T03:10:53;98978.09;;;6.79;78.68
9239;BME280;4654;43.242;27.976;2024-02-04T03:13:20;98981.25;;;6.86;78.37
9239;BME280;4654;43.242;27.976;2024-02-04T03:15:48;98980.25;;;6.92;78.03
9239;BME280;4654;43.242;27.976;2024-02-04T03:18:16;98980.03;;;6.99;77.61
9239;BME280;4654;43.242;27.976;2024-02-04T03:20:43;98984.75;;;7.02;77.11
9239;BME280;4654;43.242;27.976;2024-02-04T03:23:10;98976.91;;;7.02;77.17
9239;BME280;4654;43.242;27.976;2024-02-04T03:25:37;98986.09;;;7.09;76.97
9239;BME280;4654;43.242;27.976;2024-02-04T03:28:05;98985.31;;;7.14;76.83
9239;BME280;4654;43.242;27.976;2024-02-04T03:30:32;98957.06;;;7.01;76.88
9239;BME280;4654;43.242;27.976;2024-02-04T03:33:00;98973.06;;;7.19;76.83
9239;BME280;4654;43.242;27.976;2024-02-04T03:35:28;98974.38;;;7.22;76.64
9239;BME280;4654;43.242;27.976;2024-02-04T03:37:55;98972.84;;;7.26;76.70
9239;BME280;4654;43.242;27.976;2024-02-04T03:40:22;98972.56;;;7.22;76.93
9239;BME280;4654;43.242;27.976;2024-02-04T03:42:50;98979.06;;;7.20;77.17
9239;BME280;4654;43.242;27.976;2024-02-04T03:45:17;98971.22;;;7.20;77.58
9239;BME280;4654;43.242;27.976;2024-02-04T03:47:45;98975.69;;;7.14;77.85
9239;BME280;4654;43.242;27.976;2024-02-04T03:50:14;98970.97;;;7.16;78.63
9239;BME280;4654;43.242;27.976;2024-02-04T03:52:41;98974.63;;;7.15;79.52
9239;BME280;4654;43.242;27.976;2024-02-04T03:55:09;98961.06;;;7.18;79.69
9239;BME280;4654;43.242;27.976;2024-02-04T03:57:36;98960.03;;;7.24;79.58
9239;BME280;4654;43.242;27.976;2024-02-04T04:00:04;98963.69;;;7.28;79.28
9239;BME280;4654;43.242;27.976;2024-02-04T04:02:31;98968.16;;;7.32;79.37
9239;BME280;4654;43.242;27.976;2024-02-04T04:04:58;98956.41;;;7.35;79.11
9239;BME280;4654;43.242;27.976;2024-02-04T04:07:27;98955.13;;;7.37;79.20
9239;BME280;4654;43.242;27.976;2024-02-04T04:09:54;98947.53;;;7.41;79.12
9239;BME280;4654;43.242;27.976;2024-02-04T04:12:21;98948.06;;;7.43;79.02
9239;BME280;4654;43.242;27.976;2024-02-04T04:14:48;98946.00;;;7.45;79.06
9239;BME280;4654;43.242;27.976;2024-02-04T04:17:15;98949.69;;;7.49;79.27
9239;BME280;4654;43.242;27.976;2024-02-04T04:19:43;98946.28;;;7.53;79.30
9239;BME280;4654;43.242;27.976;2024-02-04T04:22:10;98942.09;;;7.57;79.37
9239;BME280;4654;43.242;27.976;2024-02-04T04:24:39;98950.97;;;7.56;79.75
9239;BME280;4654;43.242;27.976;2024-02-04T04:27:06;98945.75;;;7.51;80.05
9239;BME280;4654;43.242;27.976;2024-02-04T04:29:34;98949.94;;;7.52;80.30
9239;BME280;4654;43.242;27.976;2024-02-04T04:32:01;98955.16;;;7.57;80.45
9239;BME280;4654;43.242;27.976;2024-02-04T04:34:28;98943.66;;;7.53;80.64
9239;BME280;4654;43.242;27.976;2024-02-04T04:36:55;98944.19;;;7.55;80.58
9239;BME280;4654;43.242;27.976;2024-02-04T04:39:23;98944.19;;;7.55;80.71
9239;BME280;4654;43.242;27.976;2024-02-04T04:41:52;98946.03;;;7.60;80.77
9239;BME280;4654;43.242;27.976;2024-02-04T04:44:19;98949.41;;;7.60;80.78
9239;BME280;4654;43.242;27.976;2024-02-04T04:46:46;98946.03;;;7.65;80.71
9239;BME280;4654;43.242;27.976;2024-02-04T04:49:14;98951.25;;;7.65;80.62
9239;BME280;4654;43.242;27.976;2024-02-04T04:51:44;98949.94;;;7.62;80.65
9239;BME280;4654;43.242;27.976;2024-02-04T04:54:12;98957.28;;;7.65;80.94
9239;BME280;4654;43.242;27.976;2024-02-04T04:56:39;98948.13;;;7.58;81.28
9239;BME280;4654;43.242;27.976;2024-02-04T04:59:08;98943.13;;;7.56;81.81
9239;BME280;4654;43.242;27.976;2024-02-04T05:01:35;98941.31;;;7.62;82.01
9239;BME280;4654;43.242;27.976;2024-02-04T05:04:03;98939.50;;;7.62;81.73
9239;BME280;4654;43.242;27.976;2024-02-04T05:06:30;98942.13;;;7.67;81.84
9239;BME280;4654;43.242;27.976;2024-02-04T05:08:57;98951.81;;;7.72;81.80
9239;BME280;4654;43.242;27.976;2024-02-04T05:11:25;98948.66;;;7.70;81.66
9239;BME280;4654;43.242;27.976;2024-02-04T05:13:52;98937.16;;;7.76;81.53
9239;BME280;4654;43.242;27.976;2024-02-04T05:16:21;98942.38;;;7.76;81.63
9239;BME280;4654;43.242;27.976;2024-02-04T05:18:48;98945.28;;;7.79;81.57
9239;BME280;4654;43.242;27.976;2024-02-04T05:21:15;98950.22;;;7.76;81.57
9239;BME280;4654;43.242;27.976;2024-02-04T05:23:43;98960.44;;;7.77;81.96
9239;BME280;4654;43.242;27.976;2024-02-04T05:26:10;98962.53;;;7.80;81.78
9239;BME280;4654;43.242;27.976;2024-02-04T05:28:38;98958.34;;;7.79;82.08
9239;BME280;4654;43.242;27.976;2024-02-04T05:31:05;98953.91;;;7.85;82.05
9239;BME280;4654;43.242;27.976;2024-02-04T05:33:34;98955.47;;;7.86;82.12
9239;BME280;4654;43.242;27.976;2024-02-04T05:36:02;98956.00;;;7.83;82.29
9239;BME280;4654;43.242;27.976;2024-02-04T05:38:30;98950.78;;;7.88;82.25
9239;BME280;4654;43.242;27.976;2024-02-04T05:40:57;98945.00;;;7.86;82.25
9239;BME280;4654;43.242;27.976;2024-02-04T05:43:24;98955.75;;;7.89;82.36
9239;BME280;4654;43.242;27.976;2024-02-04T05:45:51;98945.03;;;7.91;82.27
9239;BME280;4654;43.242;27.976;2024-02-04T05:48:19;98952.09;;;7.90;82.31
9239;BME280;4654;43.242;27.976;2024-02-04T05:50:47;98958.38;;;7.94;82.47
9239;BME280;4654;43.242;27.976;2024-02-04T05:53:14;98955.50;;;8.01;82.22
9239;BME280;4654;43.242;27.976;2024-02-04T05:55:42;98959.69;;;8.02;82.26
9239;BME280;4654;43.242;27.976;2024-02-04T05:58:09;98956.53;;;8.10;82.39
9239;BME280;4654;43.242;27.976;2024-02-04T06:00:36;98948.72;;;8.20;81.68
9239;BME280;4654;43.242;27.976;2024-02-04T06:03:04;98949.00;;;8.28;81.02
9239;BME280;4654;43.242;27.976;2024-02-04T06:05:31;98958.16;;;8.36;80.63
9239;BME280;4654;43.242;27.976;2024-02-04T06:08:00;98959.72;;;8.42;80.20
9239;BME280;4654;43.242;27.976;2024-02-04T06:10:27;98968.34;;;8.47;79.94
9239;BME280;4654;43.242;27.976;2024-02-04T06:12:54;98966.78;;;8.56;79.48
9239;BME280;4654;43.242;27.976;2024-02-04T06:15:21;98966.25;;;8.59;79.14
9239;BME280;4654;43.242;27.976;2024-02-04T06:17:49;98968.31;;;8.67;78.66
9239;BME280;4654;43.242;27.976;2024-02-04T06:20:16;98971.44;;;8.79;78.24
9239;BME280;4654;43.242;27.976;2024-02-04T06:22:43;98975.34;;;8.86;77.85
9239;BME280;4654;43.242;27.976;2024-02-04T06:25:12;98980.59;;;8.91;77.49
9239;BME280;4654;43.242;27.976;2024-02-04T06:27:39;98972.69;;;8.96;76.98
9239;BME280;4654;43.242;27.976;2024-02-04T06:30:07;98974.25;;;9.02;76.78
9239;BME280;4654;43.242;27.976;2024-02-04T06:32:34;98975.25;;;9.11;76.04
9239;BME280;4654;43.242;27.976;2024-02-04T06:35:02;98977.59;;;9.23;75.58
9239;BME280;4654;43.242;27.976;2024-02-04T06:37:29;98985.94;;;9.30;74.96
9239;BME280;4654;43.242;27.976;2024-02-04T06:39:56;98986.16;;;9.43;74.56
9239;BME280;4654;43.242;27.976;2024-02-04T06:42:25;98990.84;;;9.51;73.99
9239;BME280;4654;43.242;27.976;2024-02-04T06:44:52;98981.88;;;9.62;73.28
9239;BME280;4654;43.242;27.976;2024-02-04T06:47:19;98989.69;;;9.72;72.53
9239;BME280;4654;43.242;27.976;2024-02-04T06:49:46;98987.50;;;9.84;71.96
9239;BME280;4654;43.242;27.976;2024-02-04T06:52:13;98979.81;;;9.98;71.38
9239;BME280;4654;43.242;27.976;2024-02-04T06:54:40;98974.44;;;10.18;70.33
9239;BME280;4654;43.242;27.976;2024-02-04T06:57:08;98977.69;;;10.38;69.33
9239;BME280;4654;43.242;27.976;2024-02-04T06:59:36;98974.66;;;10.54;68.31
9239;BME280;4654;43.242;27.976;2024-02-04T07:02:03;98966.31;;;10.76;67.58
9239;BME280;4654;43.242;27.976;2024-02-04T07:04:31;98970.75;;;11.04;66.10
9239;BME280;4654;43.242;27.976;2024-02-04T07:06:58;98969.47;;;11.43;65.03
9239;BME280;4654;43.242;27.976;2024-02-04T07:09:25;98969.63;;;11.75;63.59
9239;BME280;4654;43.242;27.976;2024-02-04T07:11:52;98960.50;;;11.86;62.47
9239;BME280;4654;43.242;27.976;2024-02-04T07:14:21;98963.28;;;12.45;61.53
9239;BME280;4654;43.242;27.976;2024-02-04T07:16:49;98956.59;;;13.60;58.24
9239;BME280;4654;43.242;27.976;2024-02-04T07:19:16;98950.38;;;13.78;56.93
9239;BME280;4654;43.242;27.976;2024-02-04T07:21:44;98944.94;;;16.41;53.04
9239;BME280;4654;43.242;27.976;2024-02-04T07:24:11;98953.00;;;17.86;47.52
9239;BME280;4654;43.242;27.976;2024-02-04T07:26:38;98939.56;;;20.42;43.89
9239;BME280;4654;43.242;27.976;2024-02-04T07:29:05;98949.31;;;20.81;41.91
9239;BME280;4654;43.242;27.976;2024-02-04T07:31:32;98945.38;;;21.21;40.95
9239;BME280;4654;43.242;27.976;2024-02-04T07:34:04;98936.34;;;21.79;39.93
9239;BME280;4654;43.242;27.976;2024-02-04T07:36:31;98930.13;;;22.32;38.43
9239;BME280;4654;43.242;27.976;2024-02-04T07:38:59;98932.06;;;21.75;39.46
9239;BME280;4654;43.242;27.976;2024-02-04T07:41:28;98936.25;;;20.92;40.04
9239;BME280;4654;43.242;27.976;2024-02-04T07:43:55;98938.75;;;21.15;41.42
9239;BME280;4654;43.242;27.976;2024-02-04T07:46:22;98929.31;;;22.69;38.48
9239;BME280;4654;43.242;27.976;2024-02-04T07:48:50;98916.13;;;23.06;37.34
9239;BME280;4654;43.242;27.976;2024-02-04T07:51:18;98940.63;;;20.99;39.62
9239;BME280;4654;43.242;27.976;2024-02-04T07:53:45;98951.00;;;18.92;42.86
9239;BME280;4654;43.242;27.976;2024-02-04T07:56:13;98947.56;;;17.62;45.31
9239;BME280;4654;43.242;27.976;2024-02-04T07:58:40;98959.53;;;16.73;47.24
9239;BME280;4654;43.242;27.976;2024-02-04T08:01:07;98958.53;;;16.06;48.91
9239;BME280;4654;43.242;27.976;2024-02-04T08:03:34;98962.06;;;15.51;50.23
9239;BME280;4654;43.242;27.976;2024-02-04T08:06:02;98966.00;;;15.23;50.90
9239;BME280;4654;43.242;27.976;2024-02-04T08:08:31;98963.84;;;14.77;52.06
9239;BME280;4654;43.242;27.976;2024-02-04T08:10:58;98973.25;;;14.40;53.28
9239;BME280;4654;43.242;27.976;2024-02-04T08:13:25;98977.53;;;13.92;54.07
9239;BME280;4654;43.242;27.976;2024-02-04T08:15:53;98985.25;;;13.66;54.86
9239;BME280;4654;43.242;27.976;2024-02-04T08:18:20;98980.47;;;13.41;55.67
9239;BME280;4654;43.242;27.976;2024-02-04T08:20:47;98982.25;;;13.19;57.14
9239;BME280;4654;43.242;27.976;2024-02-04T08:23:15;98975.31;;;13.23;57.48
9239;BME280;4654;43.242;27.976;2024-02-04T08:25:43;98986.13;;;13.35;56.74
9239;BME280;4654;43.242;27.976;2024-02-04T08:28:10;98979.78;;;13.49;56.73
9239;BME280;4654;43.242;27.976;2024-02-04T08:30:38;98969.00;;;13.59;56.25
9239;BME280;4654;43.242;27.976;2024-02-04T08:33:05;98970.41;;;13.79;56.30
9239;BME280;4654;43.242;27.976;2024-02-04T08:35:33;98964.97;;;13.75;56.24
9239;BME280;4654;43.242;27.976;2024-02-04T08:38:00;98968.47;;;13.71;56.17
9239;BME280;4654;43.242;27.976;2024-02-04T08:40:27;98966.59;;;13.85;56.23
9239;BME280;4654;43.242;27.976;2024-02-04T08:42:56;98953.94;;;14.61;55.63
9239;BME280;4654;43.242;27.976;2024-02-04T08:45:23;98955.72;;;16.11;52.58
9239;BME280;4654;43.242;27.976;2024-02-04T08:47:50;98956.94;;;16.93;49.34
9239;BME280;4654;43.242;27.976;2024-02-04T08:50:17;98950.88;;;16.93;48.76
9239;BME280;4654;43.242;27.976;2024-02-04T08:52:45;98954.63;;;16.46;49.13
9239;BME280;4654;43.242;27.976;2024-02-04T08:55:12;98952.44;;;15.89;50.02
9239;BME280;4654;43.242;27.976;2024-02-04T08:57:39;98955.06;;;15.38;51.61
9239;BME280;4654;43.242;27.976;2024-02-04T09:00:09;98948.34;;;15.40;51.95
9239;BME280;4654;43.242;27.976;2024-02-04T09:02:40;98954.09;;;15.42;51.92
9239;BME280;4654;43.242;27.976;2024-02-04T09:05:08;98955.50;;;15.31;51.80
9239;BME280;4654;43.242;27.976;2024-02-04T09:07:35;98961.34;;;15.20;52.82
9239;BME280;4654;43.242;27.976;2024-02-04T09:10:03;98956.22;;;15.23;52.12
9239;BME280;4654;43.242;27.976;2024-02-04T09:12:30;98955.09;;;15.16;52.53
9239;BME280;4654;43.242;27.976;2024-02-04T09:14:58;98957.25;;;15.05;52.68
9239;BME280;4654;43.242;27.976;2024-02-04T09:17:26;98958.94;;;15.01;52.48
9239;BME280;4654;43.242;27.976;2024-02-04T09:19:53;98955.09;;;14.47;53.05
9239;BME280;4654;43.242;27.976;2024-02-04T09:22:21;98949.06;;;14.24;53.64
9239;BME280;4654;43.242;27.976;2024-02-04T09:24:48;98942.69;;;14.25;54.32
9239;BME280;4654;43.242;27.976;2024-02-04T09:27:15;98936.84;;;14.37;54.16
9239;BME280;4654;43.242;27.976;2024-02-04T09:29:42;98931.13;;;14.43;53.59
9239;BME280;4654;43.242;27.976;2024-02-04T09:32:09;98932.44;;;14.54;53.39
9239;BME280;4654;43.242;27.976;2024-02-04T09:34:38;98933.09;;;14.60;53.73
9239;BME280;4654;43.242;27.976;2024-02-04T09:37:06;98933.00;;;14.73;53.22
9239;BME280;4654;43.242;27.976;2024-02-04T09:39:33;98927.28;;;14.79;52.91
9239;BME280;4654;43.242;27.976;2024-02-04T09:42:01;98921.03;;;14.76;52.76
9239;BME280;4654;43.242;27.976;2024-02-04T09:44:28;98913.19;;;14.62;53.30
9239;BME280;4654;43.242;27.976;2024-02-04T09:46:58;98920.72;;;14.77;52.66
9239;BME280;4654;43.242;27.976;2024-02-04T09:49:27;98916.22;;;14.77;53.32
9239;BME280;4654;43.242;27.976;2024-02-04T09:51:59;98911.41;;;14.88;52.77
9239;BME280;4654;43.242;27.976;2024-02-04T09:54:29;98917.75;;;15.17;51.95
9239;BME280;4654;43.242;27.976;2024-02-04T09:56:58;98900.50;;;16.13;50.24
9239;BME280;4654;43.242;27.976;2024-02-04T09:59:25;98886.84;;;16.94;49.00
9239;BME280;4654;43.242;27.976;2024-02-04T10:01:52;98882.75;;;18.07;46.23
9239;BME280;4654;43.242;27.976;2024-02-04T10:04:20;98872.28;;;18.02;45.63
9239;BME280;4654;43.242;27.976;2024-02-04T10:06:47;98874.25;;;18.70;45.21
9239;BME280;4654;43.242;27.976;2024-02-04T10:09:16;98861.34;;;20.57;42.51
9239;BME280;4654;43.242;27.976;2024-02-04T10:11:43;98834.31;;;22.22;39.52
9239;BME280;4654;43.242;27.976;2024-02-04T10:14:10;98845.03;;;24.07;37.22
9239;BME280;4654;43.242;27.976;2024-02-04T10:16:37;98855.25;;;25.28;34.81
9239;BME280;4654;43.242;27.976;2024-02-04T10:19:05;98847.94;;;26.35;33.54
9239;BME280;4654;43.242;27.976;2024-02-04T10:21:32;98859.16;;;26.54;32.86
9239;BME280;4654;43.242;27.976;2024-02-04T10:23:59;98872.50;;;25.95;33.38
9239;BME280;4654;43.242;27.976;2024-02-04T10:26:30;98868.59;;;25.85;33.43
9239;BME280;4654;43.242;27.976;2024-02-04T10:28:59;98873.91;;;25.04;34.29
9239;BME280;4654;43.242;27.976;2024-02-04T10:31:27;98885.16;;;24.26;35.60
9239;BME280;4654;43.242;27.976;2024-02-04T10:33:55;98883.13;;;24.56;35.14
9239;BME280;4654;43.242;27.976;2024-02-04T10:36:22;98883.16;;;24.23;35.45
9239;BME280;4654;43.242;27.976;2024-02-04T10:38:49;98891.56;;;23.56;35.88
9239;BME280;4654;43.242;27.976;2024-02-04T10:41:17;98881.38;;;22.23;37.46
9239;BME280;4654;43.242;27.976;2024-02-04T10:43:46;98887.97;;;22.07;38.27
9239;BME280;4654;43.242;27.976;2024-02-04T10:46:18;98887.69;;;21.93;38.38
9239;BME280;4654;43.242;27.976;2024-02-04T10:48:50;98878.69;;;21.63;38.85
9239;BME280;4654;43.242;27.976;2024-02-04T10:51:23;98875.72;;;21.14;39.29
9239;BME280;4654;43.242;27.976;2024-02-04T10:53:51;98873.19;;;21.21;39.63
9239;BME280;4654;43.242;27.976;2024-02-04T10:56:37;98863.34;;;21.25;39.63
9239;BME280;4654;43.242;27.976;2024-02-04T10:59:07;98871.91;;;21.15;39.45
9239;BME280;4654;43.242;27.976;2024-02-04T11:01:34;98874.78;;;20.92;39.72
9239;BME280;4654;43.242;27.976;2024-02-04T11:04:02;98868.91;;;20.40;40.90
9239;BME280;4654;43.242;27.976;2024-02-04T11:06:32;98884.72;;;19.90;41.48
9239;BME280;4654;43.242;27.976;2024-02-04T11:09:00;98876.75;;;19.38;42.39
9239;BME280;4654;43.242;27.976;2024-02-04T11:11:29;98877.13;;;19.01;43.11
9239;BME280;4654;43.242;27.976;2024-02-04T11:13:59;98876.09;;;19.06;43.08
9239;BME280;4654;43.242;27.976;2024-02-04T11:16:43;98866.25;;;18.58;42.87
9239;BME280;4654;43.242;27.976;2024-02-04T11:19:26;98858.66;;;18.36;43.33
9239;BME280;4654;43.242;27.976;2024-02-04T11:22:14;98872.50;;;17.97;44.09
9239;BME280;4654;43.242;27.976;2024-02-04T11:24:58;98869.56;;;17.79;43.89
9239;BME280;4654;43.242;27.976;2024-02-04T11:27:29;98867.13;;;17.74;44.28
9239;BME280;4654;43.242;27.976;2024-02-04T11:29:57;98871.00;;;17.56;44.73
9239;BME280;4654;43.242;27.976;2024-02-04T11:32:26;98874.44;;;17.36;44.90
9239;BME280;4654;43.242;27.976;2024-02-04T11:34:54;98878.59;;;17.16;45.32
9239;BME280;4654;43.242;27.976;2024-02-04T11:37:26;98874.31;;;17.03;45.42
9239;BME280;4654;43.242;27.976;2024-02-04T11:39:54;98863.78;;;16.86;45.80
9239;BME280;4654;43.242;27.976;2024-02-04T11:42:23;98860.75;;;16.67;46.21
9239;BME280;4654;43.242;27.976;2024-02-04T11:45:05;98855.25;;;16.27;46.77
9239;BME280;4654;43.242;27.976;2024-02-04T11:47:34;98874.88;;;16.42;47.24
9239;BME280;4654;43.242;27.976;2024-02-04T11:50:02;98876.91;;;16.37;47.39
9239;BME280;4654;43.242;27.976;2024-02-04T11:52:30;98878.50;;;16.13;47.85
9239;BME280;4654;43.242;27.976;2024-02-04T11:54:57;98877.59;;;16.09;48.32
9239;BME280;4654;43.242;27.976;2024-02-04T11:57:24;98881.38;;;15.91;48.19
9239;BME280;4654;43.242;27.976;2024-02-04T11:59:53;98882.16;;;15.74;48.75
9239;BME280;4654;43.242;27.976;2024-02-04T12:02:21;98878.13;;;15.68;48.98
9239;BME280;4654;43.242;27.976;2024-02-04T12:04:50;98885.25;;;15.68;49.63
9239;BME280;4654;43.242;27.976;2024-02-04T12:07:19;98879.66;;;15.69;49.83
9239;BME280;4654;43.242;27.976;2024-02-04T12:09:48;98881.53;;;15.52;49.77
9239;BME280;4654;43.242;27.976;2024-02-04T12:12:15;98888.06;;;15.63;50.12
9239;BME280;4654;43.242;27.976;2024-02-04T12:14:45;98886.03;;;15.51;50.14
9239;BME280;4654;43.242;27.976;2024-02-04T12:17:12;98884.66;;;15.62;49.69
9239;BME280;4654;43.242;27.976;2024-02-04T12:19:40;98874.38;;;15.61;49.71
9239;BME280;4654;43.242;27.976;2024-02-04T12:22:09;98868.75;;;15.37;49.86
9239;BME280;4654;43.242;27.976;2024-02-04T12:24:36;98874.19;;;15.40;50.82
9239;BME280;4654;43.242;27.976;2024-02-04T12:27:04;98869.09;;;15.52;50.46
9239;BME280;4654;43.242;27.976;2024-02-04T12:29:32;98864.09;;;15.51;50.63
9239;BME280;4654;43.242;27.976;2024-02-04T12:32:00;98872.81;;;15.43;50.31
9239;BME280;4654;43.242;27.976;2024-02-04T12:34:28;98870.94;;;15.35;49.96
9239;BME280;4654;43.242;27.976;2024-02-04T12:36:58;98866.84;;;15.20;50.63
9239;BME280;4654;43.242;27.976;2024-02-04T12:39:28;98861.97;;;15.05;51.22
9239;BME280;4654;43.242;27.976;2024-02-04T12:41:58;98856.06;;;15.00;51.22
9239;BME280;4654;43.242;27.976;2024-02-04T12:44:25;98855.28;;;15.08;51.18
9239;BME280;4654;43.242;27.976;2024-02-04T12:46:53;98842.97;;;15.03;51.02
9239;BME280;4654;43.242;27.976;2024-02-04T12:49:20;98844.06;;;14.94;51.39
9239;BME280;4654;43.242;27.976;2024-02-04T12:51:48;98843.13;;;14.90;51.49
9239;BME280;4654;43.242;27.976;2024-02-04T12:54:17;98845.28;;;14.79;51.75
9239;BME280;4654;43.242;27.976;2024-02-04T12:56:49;98848.69;;;14.80;51.75
9239;BME280;4654;43.242;27.976;2024-02-04T12:59:26;98853.19;;;14.71;52.05
9239;BME280;4654;43.242;27.976;2024-02-04T13:01:54;98846.88;;;14.50;52.55
9239;BME280;4654;43.242;27.976;2024-02-04T13:04:22;98851.47;;;14.36;53.17
9239;BME280;4654;43.242;27.976;2024-02-04T13:06:50;98851.13;;;14.29;52.94
9239;BME280;4654;43.242;27.976;2024-02-04T13:09:17;98851.28;;;14.24;53.11
9239;BME280;4654;43.242;27.976;2024-02-04T13:11:46;98846.22;;;14.14;53.27
9239;BME280;4654;43.242;27.976;2024-02-04T13:14:13;98850.06;;;14.08;52.97
9239;BME280;4654;43.242;27.976;2024-02-04T13:16:41;98853.75;;;13.99;53.20
9239;BME280;4654;43.242;27.976;2024-02-04T13:19:08;98853.88;;;13.94;53.05
9239;BME280;4654;43.242;27.976;2024-02-04T13:21:35;98854.94;;;13.93;53.18